createdAt,value
2023-03-17T00:01:54.558Z,3.00
2023-03-17T00:04:24.196Z,3.63
2023-03-17T00:09:20.047Z,5.97
2023-03-17T00:11:47.277Z,3.72
2023-03-17T00:14:14.609Z,4.93
2023-03-17T00:16:43.724Z,4.35
2023-03-17T00:19:16.551Z,3.75
2023-03-17T00:21:46.985Z,3.63
2023-03-17T00:24:15.248Z,4.68
2023-03-17T00:26:43.278Z,3.17
2023-03-17T00:29:10.600Z,5.90
2023-03-17T00:31:38.085Z,4.85
2023-03-17T00:34:05.848Z,4.78
2023-03-17T00:36:34.184Z,6.05
2023-03-17T00:39:05.883Z,3.30
2023-03-17T00:41:32.723Z,4.10
2023-03-17T00:43:59.459Z,4.32
2023-03-17T00:46:35.770Z,3.83
2023-03-17T00:49:05.335Z,3.47
2023-03-17T00:51:32.207Z,3.15
2023-03-17T00:53:59.005Z,5.55
2023-03-17T00:56:27.930Z,5.20
2023-03-17T00:58:54.836Z,3.25
2023-03-17T01:01:21.769Z,3.10
2023-03-17T01:03:48.575Z,4.07
2023-03-17T01:06:15.554Z,3.03
2023-03-17T01:08:42.753Z,3.38
2023-03-17T01:11:20.361Z,3.47
2023-03-17T01:13:47.856Z,3.78
2023-03-17T01:16:15.698Z,4.50
2023-03-17T01:18:43.370Z,3.33
2023-03-17T01:21:10.232Z,3.08
2023-03-17T01:23:37.424Z,3.33
2023-03-17T01:26:04.297Z,3.40
2023-03-17T01:28:31.008Z,3.17
2023-03-17T01:30:58.706Z,4.18
2023-03-17T01:33:25.658Z,4.30
2023-03-17T01:35:52.491Z,3.53
2023-03-17T01:38:19.333Z,3.75
2023-03-17T01:40:49.645Z,3.42
2023-03-17T01:43:18.044Z,2.72
2023-03-17T01:46:16.315Z,3.33
2023-03-17T01:48:44.600Z,4.75
2023-03-17T01:51:31.958Z,3.33
2023-03-17T01:54:01.278Z,8.48
2023-03-17T01:56:28.944Z,4.95
2023-03-17T01:58:57.117Z,3.60
2023-03-17T02:01:27.779Z,2.30
2023-03-17T02:03:55.228Z,5.03
2023-03-17T02:06:22.335Z,2.85
2023-03-17T02:08:49.892Z,3.13
2023-03-17T02:11:16.995Z,5.63
2023-03-17T02:13:44.670Z,3.58
2023-03-17T02:16:16.094Z,2.55
2023-03-17T02:18:43.895Z,3.47
2023-03-17T02:21:31.786Z,2.72
2023-03-17T02:24:01.124Z,3.67
2023-03-17T02:26:29.707Z,4.18
2023-03-17T02:28:56.903Z,2.45
2023-03-17T02:31:26.013Z,3.42
2023-03-17T02:33:53.339Z,3.17
2023-03-17T02:36:21.962Z,4.03
2023-03-17T02:38:50.482Z,3.05
2023-03-17T02:41:17.483Z,3.00
2023-03-17T02:43:45.050Z,3.00
2023-03-17T02:46:11.848Z,2.33
2023-03-17T02:48:39.060Z,4.55
2023-03-17T02:51:06.075Z,3.20
2023-03-17T02:53:32.865Z,4.35
2023-03-17T02:55:59.594Z,3.65
2023-03-17T02:58:26.317Z,3.15
2023-03-17T03:00:53.189Z,3.70
2023-03-17T03:03:20.073Z,3.30
2023-03-17T03:05:47.322Z,2.70
2023-03-17T03:08:14.236Z,2.47
2023-03-17T03:10:41.758Z,3.08
2023-03-17T03:13:08.650Z,3.40
2023-03-17T03:15:35.792Z,2.88
2023-03-17T03:18:02.680Z,4.90
2023-03-17T03:20:30.532Z,6.18
2023-03-17T03:22:57.471Z,2.92
2023-03-17T03:25:24.184Z,2.63
2023-03-17T03:27:50.916Z,3.15
2023-03-17T03:30:18.207Z,4.78
2023-03-17T03:32:45.091Z,3.75
2023-03-17T03:35:11.853Z,3.50
2023-03-17T03:37:38.609Z,8.90
2023-03-17T03:40:07.434Z,2.83
2023-03-17T03:42:34.171Z,3.70
2023-03-17T03:45:01.359Z,5.20
2023-03-17T03:47:28.252Z,3.08
2023-03-17T03:49:55.104Z,3.58
2023-03-17T03:52:21.927Z,3.83
2023-03-17T03:54:48.671Z,2.97
2023-03-17T03:57:16.209Z,3.63
2023-03-17T03:59:42.967Z,2.70
2023-03-17T04:02:10.125Z,2.67
2023-03-17T04:04:37.024Z,5.05
2023-03-17T04:07:03.780Z,4.90
2023-03-17T04:09:30.537Z,3.25
2023-03-17T04:11:57.279Z,4.00
2023-03-17T04:14:24.026Z,4.20
2023-03-17T04:16:50.785Z,4.13
2023-03-17T04:19:17.693Z,3.55
2023-03-17T04:21:44.434Z,4.25
2023-03-17T04:24:11.136Z,5.63
2023-03-17T04:26:39.093Z,3.10
2023-03-17T04:29:08.032Z,4.43
2023-03-17T04:31:39.663Z,3.92
2023-03-17T04:34:07.316Z,5.55
2023-03-17T04:36:34.791Z,3.45
2023-03-17T04:39:01.964Z,2.78
2023-03-17T04:41:28.756Z,3.75
2023-03-17T04:43:55.492Z,3.15
2023-03-17T04:46:22.207Z,4.35
2023-03-17T04:48:48.988Z,3.67
2023-03-17T04:51:17.042Z,4.70
2023-03-17T04:53:44.760Z,3.97
2023-03-17T04:56:11.792Z,3.55
2023-03-17T04:58:38.633Z,4.32
2023-03-17T05:01:05.622Z,6.20
2023-03-17T05:03:33.252Z,3.92
2023-03-17T05:06:01.073Z,3.55
2023-03-17T05:08:31.095Z,3.30
2023-03-17T05:10:58.978Z,3.40
2023-03-17T05:13:26.340Z,5.82
2023-03-17T05:15:54.692Z,5.07
2023-03-17T05:18:24.256Z,5.18
2023-03-17T05:23:17.831Z,3.85
2023-03-17T05:25:44.670Z,3.60
2023-03-17T05:28:11.449Z,4.47
2023-03-17T05:30:38.284Z,5.03
2023-03-17T05:33:06.065Z,3.47
2023-03-17T05:35:32.958Z,4.28
2023-03-17T05:37:59.754Z,3.38
2023-03-17T05:40:26.673Z,3.15
2023-03-17T05:42:53.413Z,4.40
2023-03-17T05:45:20.154Z,4.20
2023-03-17T05:47:49.045Z,2.88
2023-03-17T05:50:17.176Z,3.47
2023-03-17T05:52:43.888Z,4.55
2023-03-17T05:55:11.618Z,4.22
2023-03-17T05:57:38.620Z,4.38
2023-03-17T06:00:06.000Z,3.42
2023-03-17T06:02:32.794Z,4.10
2023-03-17T06:04:59.643Z,4.40
2023-03-17T06:07:27.508Z,5.13
2023-03-17T06:09:55.816Z,3.00
2023-03-17T06:12:22.852Z,4.40
2023-03-17T06:14:49.666Z,3.78
2023-03-17T06:17:16.368Z,4.88
2023-03-17T06:19:43.100Z,4.00
2023-03-17T06:22:10.047Z,7.10
2023-03-17T06:24:36.909Z,3.75
2023-03-17T06:27:03.804Z,6.93
2023-03-17T06:29:32.610Z,4.72
2023-03-17T06:32:06.321Z,5.47
2023-03-17T06:34:44.685Z,3.10
2023-03-17T06:37:11.666Z,3.42
2023-03-17T06:39:39.120Z,9.38
2023-03-17T06:42:06.388Z,5.47
2023-03-17T06:44:33.334Z,4.10
2023-03-17T06:47:00.115Z,3.05
2023-03-17T06:49:27.052Z,6.32
2023-03-17T06:51:54.048Z,3.95
2023-03-17T06:54:23.839Z,5.72
2023-03-17T06:56:50.870Z,3.22
2023-03-17T06:59:17.974Z,6.55
2023-03-17T07:01:45.474Z,5.55
2023-03-17T07:04:12.649Z,5.50
2023-03-17T07:06:39.462Z,3.80
2023-03-17T07:09:07.587Z,3.05
2023-03-17T07:11:34.360Z,3.05
2023-03-17T07:14:01.404Z,3.92
2023-03-17T07:16:28.864Z,3.65
2023-03-17T07:18:55.876Z,5.03
2023-03-17T07:21:22.656Z,3.88
2023-03-17T07:23:49.357Z,9.13
2023-03-17T07:26:16.084Z,14.52
2023-03-17T07:28:42.847Z,7.97
2023-03-17T07:31:11.521Z,9.45
2023-03-17T07:33:39.034Z,7.00
2023-03-17T07:36:07.285Z,5.88
2023-03-17T07:38:34.314Z,7.60
2023-03-17T07:41:01.292Z,5.90
2023-03-17T07:43:28.295Z,5.90
2023-03-17T07:45:55.138Z,8.25
2023-03-17T07:48:21.957Z,7.20
2023-03-17T07:50:48.719Z,8.10
2023-03-17T07:53:15.451Z,8.23
2023-03-17T07:55:42.573Z,7.25
2023-03-17T07:58:10.530Z,8.45
2023-03-17T08:00:37.278Z,6.72
2023-03-17T08:03:10.324Z,7.72
2023-03-17T08:05:37.997Z,9.73
2023-03-17T08:08:06.621Z,10.13
2023-03-17T08:10:33.847Z,6.73
2023-03-17T08:13:00.938Z,6.47
2023-03-17T08:15:27.782Z,6.15
2023-03-17T08:17:54.494Z,8.20
2023-03-17T08:20:21.787Z,10.23
2023-03-17T08:22:48.540Z,6.55
2023-03-17T08:25:15.433Z,5.07
2023-03-17T08:27:42.577Z,4.50
2023-03-17T08:30:10.053Z,6.78
2023-03-17T08:32:37.092Z,5.43
2023-03-17T08:35:06.405Z,4.97
2023-03-17T08:37:33.320Z,5.32
2023-03-17T08:40:01.104Z,10.20
2023-03-17T08:42:27.874Z,7.78
2023-03-17T08:44:54.629Z,6.90
2023-03-17T08:47:21.758Z,6.53
2023-03-17T08:49:48.527Z,4.53
2023-03-17T08:52:16.290Z,7.00
2023-03-17T08:54:43.220Z,7.88
2023-03-17T08:57:10.764Z,5.88
2023-03-17T08:59:37.702Z,8.68
2023-03-17T09:02:04.923Z,6.43
2023-03-17T09:04:32.500Z,4.63
2023-03-17T09:07:03.737Z,3.63
2023-03-17T09:09:32.152Z,5.72
2023-03-17T09:11:58.955Z,6.25
2023-03-17T09:14:25.754Z,6.38
2023-03-17T09:16:53.115Z,5.32
2023-03-17T09:19:20.365Z,3.38
2023-03-17T09:21:47.327Z,6.45
2023-03-17T09:24:14.092Z,8.30
2023-03-17T09:26:41.684Z,6.50
2023-03-17T09:29:08.834Z,5.15
2023-03-17T09:31:38.935Z,8.45
2023-03-17T09:34:06.045Z,5.53
2023-03-17T09:36:33.615Z,5.00
2023-03-17T09:39:00.948Z,6.07
2023-03-17T09:41:52.542Z,6.43
2023-03-17T09:44:43.188Z,10.50
2023-03-17T09:47:36.548Z,5.47
2023-03-17T09:50:08.470Z,5.45
2023-03-17T09:52:36.332Z,9.00
2023-03-17T09:55:07.600Z,9.63
2023-03-17T09:57:39.156Z,6.60
2023-03-17T10:00:14.546Z,7.70
2023-03-17T10:02:43.157Z,5.80
2023-03-17T10:05:12.856Z,5.80
2023-03-17T10:07:49.551Z,5.30
2023-03-17T10:10:38.056Z,7.75
2023-03-17T10:13:29.021Z,11.73
2023-03-17T10:16:07.464Z,6.72
2023-03-17T10:18:53.468Z,7.27
2023-03-17T10:21:28.682Z,8.85
2023-03-17T10:23:57.771Z,4.80
2023-03-17T10:26:40.483Z,17.15
2023-03-17T10:29:17.554Z,28.05
2023-03-17T10:31:44.885Z,18.50
2023-03-17T10:34:15.885Z,14.95
2023-03-17T10:36:45.867Z,17.92
2023-03-17T10:39:17.483Z,11.65
2023-03-17T10:41:56.109Z,11.57
2023-03-17T10:44:31.180Z,10.32
2023-03-17T10:46:58.097Z,15.88
2023-03-17T10:49:26.492Z,12.52
2023-03-17T10:51:54.993Z,14.37
2023-03-17T10:54:25.231Z,10.57
2023-03-17T10:57:01.073Z,13.57
2023-03-17T11:02:16.505Z,8.45
2023-03-17T11:04:43.346Z,5.80
2023-03-17T11:07:16.436Z,11.40
2023-03-17T11:09:43.439Z,8.55
2023-03-17T11:12:26.467Z,10.98
2023-03-17T11:15:01.229Z,12.40
2023-03-17T11:18:00.867Z,8.48
2023-03-17T11:20:41.262Z,11.20
2023-03-17T11:23:37.462Z,10.27
2023-03-17T11:26:08.706Z,10.18
2023-03-17T11:28:41.088Z,8.82
2023-03-17T11:31:15.352Z,10.10
2023-03-17T11:34:08.791Z,12.20
2023-03-17T11:36:54.559Z,9.10
2023-03-17T11:39:28.411Z,10.68
2023-03-17T11:42:14.559Z,11.75
2023-03-17T11:45:00.486Z,10.23
2023-03-17T11:47:48.964Z,8.05
2023-03-17T11:50:30.812Z,8.63
2023-03-17T11:53:18.960Z,10.30
2023-03-17T11:55:51.591Z,7.25
2023-03-17T11:58:44.149Z,20.80
2023-03-17T12:01:21.905Z,9.35
2023-03-17T12:03:53.758Z,7.38
2023-03-17T12:06:34.983Z,8.10
2023-03-17T12:09:33.028Z,13.07
2023-03-17T12:12:00.503Z,10.88
2023-03-17T12:14:52.372Z,8.48
2023-03-17T12:17:25.795Z,10.55
2023-03-17T12:20:18.746Z,10.48
2023-03-17T12:22:57.127Z,9.60
2023-03-17T12:25:36.863Z,11.65
2023-03-17T12:28:19.224Z,10.30
2023-03-17T12:31:09.606Z,8.23
2023-03-17T12:33:50.048Z,6.65
2023-03-17T12:36:17.654Z,7.45
2023-03-17T12:38:52.446Z,12.68
2023-03-17T12:41:49.937Z,9.68
2023-03-17T12:44:30.329Z,8.05
2023-03-17T12:47:11.606Z,7.15
2023-03-17T12:49:38.433Z,10.23
2023-03-17T12:52:05.189Z,10.18
2023-03-17T12:54:34.891Z,7.75
2023-03-17T12:57:15.986Z,9.75
2023-03-17T12:59:44.223Z,14.23
2023-03-17T13:02:29.158Z,8.57
2023-03-17T13:05:00.549Z,7.60
2023-03-17T13:07:33.365Z,7.30
2023-03-17T13:10:03.109Z,9.95
2023-03-17T13:12:42.068Z,8.40
2023-03-17T13:15:28.199Z,6.22
2023-03-17T13:18:17.853Z,6.65
2023-03-17T13:20:52.306Z,8.15
2023-03-17T13:23:41.787Z,8.85
2023-03-17T13:26:12.770Z,7.43
2023-03-17T13:28:41.483Z,7.05
2023-03-17T13:31:09.096Z,8.02
2023-03-17T13:33:41.388Z,9.48
2023-03-17T13:36:17.237Z,9.98
2023-03-17T13:39:19.196Z,9.70
2023-03-17T13:42:18.152Z,7.03
2023-03-17T13:45:01.175Z,9.60
2023-03-17T13:47:37.943Z,8.05
2023-03-17T13:50:16.986Z,7.35
2023-03-17T13:52:49.906Z,5.65
2023-03-17T13:55:23.504Z,8.50
2023-03-17T13:57:58.737Z,5.47
2023-03-17T14:00:29.294Z,7.05
2023-03-17T14:03:06.763Z,6.35
2023-03-17T14:05:36.201Z,11.02
2023-03-17T14:08:06.342Z,6.30
2023-03-17T14:10:34.258Z,5.68
2023-03-17T14:13:28.340Z,7.15
2023-03-17T14:16:28.239Z,7.13
2023-03-17T14:19:00.750Z,11.60
2023-03-17T14:21:32.819Z,9.18
2023-03-17T14:24:04.284Z,7.80
2023-03-17T14:26:32.557Z,10.75
2023-03-17T14:29:00.910Z,6.07
2023-03-17T14:31:28.806Z,6.13
2023-03-17T14:33:59.979Z,11.02
2023-03-17T14:36:28.172Z,5.60
2023-03-17T14:38:56.463Z,7.32
2023-03-17T14:41:27.724Z,11.63
2023-03-17T14:43:58.717Z,6.05
2023-03-17T14:46:38.705Z,6.30
2023-03-17T14:49:21.309Z,5.60
2023-03-17T14:51:50.076Z,7.32
2023-03-17T14:54:24.178Z,6.13
2023-03-17T14:57:02.169Z,5.80
2023-03-17T14:59:56.909Z,4.43
2023-03-17T15:02:30.665Z,6.97
2023-03-17T15:05:01.301Z,9.15
2023-03-17T15:07:40.813Z,8.13
2023-03-17T15:10:22.624Z,8.23
2023-03-17T15:12:49.505Z,4.70
2023-03-17T15:15:26.114Z,6.45
2023-03-17T15:17:56.497Z,5.68
2023-03-17T15:20:23.463Z,6.82
2023-03-17T15:22:59.044Z,6.03
2023-03-17T15:25:29.063Z,10.68
2023-03-17T15:27:56.167Z,4.63
2023-03-17T15:30:23.772Z,6.88
2023-03-17T15:32:52.840Z,6.45
2023-03-17T15:35:19.617Z,6.00
2023-03-17T15:37:46.572Z,7.85
2023-03-17T15:40:13.804Z,6.28
2023-03-17T15:42:40.774Z,9.52
2023-03-17T15:45:08.458Z,15.75
2023-03-17T15:47:37.645Z,12.45
2023-03-17T15:50:16.476Z,9.95
2023-03-17T15:55:21.354Z,7.10
2023-03-17T15:57:54.758Z,21.25
2023-03-17T16:00:24.051Z,8.10
2023-03-17T16:02:55.367Z,6.05
2023-03-17T16:05:24.676Z,8.52
2023-03-17T16:07:52.578Z,5.85
2023-03-17T16:10:28.126Z,10.00
2023-03-17T16:12:55.299Z,7.35
2023-03-17T16:15:27.664Z,7.57
2023-03-17T16:17:56.868Z,5.97
2023-03-17T16:20:39.326Z,7.53
2023-03-17T16:23:13.329Z,7.45
2023-03-17T16:25:40.366Z,5.35
2023-03-17T16:28:22.155Z,6.47
2023-03-17T16:30:49.762Z,6.20
2023-03-17T16:33:23.088Z,7.53
2023-03-17T16:35:52.372Z,5.47
2023-03-17T16:38:22.183Z,7.18
2023-03-17T16:40:51.179Z,5.70
2023-03-17T16:43:25.839Z,5.97
2023-03-17T16:45:55.739Z,5.50
2023-03-17T16:48:22.501Z,7.53
2023-03-17T16:50:49.369Z,5.80
2023-03-17T16:53:16.185Z,5.88
2023-03-17T16:55:43.087Z,6.95
2023-03-17T16:58:26.932Z,7.07
2023-03-17T17:00:57.637Z,6.57
2023-03-17T17:03:24.370Z,4.40
2023-03-17T17:05:51.440Z,8.63
2023-03-17T17:08:18.170Z,5.32
2023-03-17T17:10:44.998Z,6.47
2023-03-17T17:13:12.284Z,4.38
2023-03-17T17:15:39.934Z,5.68
2023-03-17T17:18:21.809Z,4.75
2023-03-17T17:20:49.499Z,9.85
2023-03-17T17:23:19.299Z,5.22
2023-03-17T17:25:46.624Z,5.10
2023-03-17T17:28:15.252Z,5.78
2023-03-17T17:30:45.097Z,4.10
2023-03-17T17:33:12.092Z,6.50
2023-03-17T17:35:39.027Z,5.22
2023-03-17T17:38:12.169Z,6.38
2023-03-17T17:40:38.890Z,3.90
2023-03-17T17:43:05.665Z,4.97
2023-03-17T17:45:32.641Z,6.03
2023-03-17T17:47:59.405Z,5.18
2023-03-17T17:50:28.014Z,7.75
2023-03-17T17:52:57.041Z,5.72
2023-03-17T17:55:23.763Z,7.43
2023-03-17T17:57:52.543Z,4.82
2023-03-17T18:00:20.213Z,5.43
2023-03-17T18:02:46.934Z,4.47
2023-03-17T18:05:15.580Z,8.13
2023-03-17T18:07:42.401Z,6.82
2023-03-17T18:10:19.738Z,5.75
2023-03-17T18:12:46.677Z,5.38
2023-03-17T18:15:13.599Z,6.03
2023-03-17T18:17:41.315Z,4.95
2023-03-17T18:20:10.545Z,6.30
2023-03-17T18:25:05.346Z,5.32
2023-03-17T18:27:32.085Z,5.70
2023-03-17T18:29:59.912Z,6.97
2023-03-17T18:32:27.792Z,13.70
2023-03-17T18:34:55.022Z,6.53
2023-03-17T18:37:21.812Z,7.97
2023-03-17T18:40:05.687Z,5.50
2023-03-17T18:42:35.383Z,8.55
2023-03-17T18:45:02.274Z,7.18
2023-03-17T18:47:29.022Z,7.15
2023-03-17T18:49:56.552Z,5.78
2023-03-17T18:52:23.275Z,7.10
2023-03-17T18:54:49.988Z,8.32
2023-03-17T18:57:17.184Z,12.95
2023-03-17T18:59:44.016Z,8.30
2023-03-17T19:02:11.611Z,8.60
2023-03-17T19:04:45.826Z,5.13
2023-03-17T19:07:16.451Z,6.60
2023-03-17T19:09:43.603Z,8.25
2023-03-17T19:12:10.354Z,10.35
2023-03-17T19:14:38.647Z,10.40
2023-03-17T19:17:06.257Z,5.83
2023-03-17T19:19:33.904Z,7.50
2023-03-17T19:22:01.351Z,7.85
2023-03-17T19:24:28.198Z,8.23
2023-03-17T19:26:55.077Z,7.65
2023-03-17T19:29:21.871Z,9.02
2023-03-17T19:31:48.878Z,5.70
2023-03-17T19:34:16.215Z,3.50
2023-03-17T19:36:45.761Z,6.70
2023-03-17T19:39:13.178Z,9.18
2023-03-17T19:41:40.047Z,5.55
2023-03-17T19:44:07.026Z,5.60
2023-03-17T19:46:37.709Z,7.72
2023-03-17T19:49:05.091Z,6.60
2023-03-17T19:51:33.149Z,7.82
2023-03-17T19:53:59.960Z,6.28
2023-03-17T19:56:27.859Z,5.57
2023-03-17T19:58:55.441Z,11.38
2023-03-17T20:01:22.801Z,5.18
2023-03-17T20:03:49.751Z,7.80
2023-03-17T20:06:16.807Z,6.95
2023-03-17T20:08:44.026Z,8.70
2023-03-17T20:11:12.581Z,8.10
2023-03-17T20:13:39.955Z,7.15
2023-03-17T20:16:07.676Z,9.00
2023-03-17T20:18:34.700Z,6.20
2023-03-17T20:21:05.620Z,5.63
2023-03-17T20:23:33.104Z,5.97
2023-03-17T20:25:59.897Z,11.25
2023-03-17T20:28:27.730Z,6.90
2023-03-17T20:31:00.446Z,6.65
2023-03-17T20:33:27.744Z,4.88
2023-03-17T20:35:54.691Z,5.95
2023-03-17T20:38:21.539Z,6.30
2023-03-17T20:40:48.452Z,6.15
2023-03-17T20:43:15.385Z,7.40
2023-03-17T20:45:42.198Z,6.30
2023-03-17T20:48:10.717Z,9.52
2023-03-17T20:50:38.740Z,9.77
2023-03-17T20:53:05.477Z,6.35
2023-03-17T20:55:32.273Z,6.50
2023-03-17T20:57:59.707Z,9.25
2023-03-17T21:00:26.959Z,8.02
2023-03-17T21:02:53.854Z,8.23
2023-03-17T21:05:24.823Z,4.85
2023-03-17T21:07:51.721Z,6.38
2023-03-17T21:10:19.385Z,7.10
2023-03-17T21:12:46.396Z,6.13
2023-03-17T21:15:14.157Z,6.25
2023-03-17T21:17:42.136Z,5.75
2023-03-17T21:20:13.059Z,6.95
2023-03-17T21:22:40.893Z,8.05
2023-03-17T21:25:09.081Z,7.30
2023-03-17T21:27:40.129Z,7.43
2023-03-17T21:30:09.625Z,7.07
2023-03-17T21:32:36.686Z,9.82
2023-03-17T21:35:04.068Z,10.10
2023-03-17T21:37:31.020Z,7.57
2023-03-17T21:39:58.049Z,7.88
2023-03-17T21:42:25.329Z,9.60
2023-03-17T21:44:52.446Z,6.38
2023-03-17T21:47:19.927Z,8.10
2023-03-17T21:49:46.845Z,7.93
2023-03-17T21:52:15.037Z,8.45
2023-03-17T21:54:42.013Z,6.55
2023-03-17T21:57:09.353Z,5.75
2023-03-17T21:59:36.216Z,7.75
2023-03-17T22:02:03.583Z,8.70
2023-03-17T22:04:30.327Z,6.25
2023-03-17T22:06:58.804Z,7.43
2023-03-17T22:09:25.949Z,8.02
2023-03-17T22:11:52.715Z,7.57
2023-03-17T22:14:20.664Z,7.15
2023-03-17T22:16:49.119Z,6.28
2023-03-17T22:19:18.216Z,9.50
2023-03-17T22:21:46.100Z,7.75
2023-03-17T22:24:12.889Z,8.02
2023-03-17T22:26:39.701Z,6.93
2023-03-17T22:29:06.487Z,8.85
2023-03-17T22:31:34.741Z,6.53
2023-03-17T22:34:02.213Z,8.35
2023-03-17T22:36:29.399Z,9.13
2023-03-17T22:38:56.537Z,10.60
2023-03-17T22:41:27.083Z,8.52
2023-03-17T22:43:54.260Z,8.77
2023-03-17T22:46:21.661Z,9.07
2023-03-17T22:48:48.853Z,8.00
2023-03-17T22:51:18.405Z,9.05
2023-03-17T22:53:45.573Z,7.53
2023-03-17T22:56:13.383Z,6.22
2023-03-17T22:58:41.050Z,6.63
2023-03-17T23:01:08.980Z,7.18
2023-03-17T23:03:36.268Z,6.45
2023-03-17T23:06:05.064Z,8.40
2023-03-17T23:08:35.205Z,9.82
2023-03-17T23:11:05.627Z,7.38
2023-03-17T23:13:32.859Z,7.47
2023-03-17T23:15:59.858Z,6.38
2023-03-17T23:18:26.637Z,7.38
2023-03-17T23:20:53.434Z,9.55
2023-03-17T23:23:20.226Z,6.72
2023-03-17T23:25:47.078Z,7.03
2023-03-17T23:28:15.519Z,7.00
2023-03-17T23:30:43.519Z,7.63
2023-03-17T23:33:11.676Z,8.00
2023-03-17T23:35:38.761Z,6.60
2023-03-17T23:38:05.648Z,6.90
2023-03-17T23:40:33.044Z,8.15
2023-03-17T23:43:00.094Z,5.95
2023-03-17T23:45:27.983Z,5.72
2023-03-17T23:47:55.579Z,7.35
2023-03-17T23:50:23.172Z,6.60
2023-03-17T23:52:49.962Z,7.18
2023-03-17T23:55:17.419Z,6.35
2023-03-17T23:57:44.333Z,6.68
